createdAt,value
2019-01-12T00:00:54.221Z,3.20
2019-01-12T00:03:23.107Z,3.20
2019-01-12T00:05:52.381Z,3.30
2019-01-12T00:08:21.456Z,3.30
2019-01-12T00:10:50.484Z,3.30
2019-01-12T00:13:19.486Z,3.40
2019-01-12T00:15:48.406Z,3.30
2019-01-12T00:18:17.504Z,3.40
2019-01-12T00:20:46.511Z,3.30
2019-01-12T00:23:15.559Z,3.30
2019-01-12T00:25:44.610Z,3.30
2019-01-12T00:28:13.405Z,3.30
2019-01-12T00:30:42.381Z,3.30
2019-01-12T00:33:11.186Z,3.30
2019-01-12T00:35:40.099Z,3.30
2019-01-12T00:38:09.063Z,3.30
2019-01-12T00:40:38.056Z,3.30
2019-01-12T00:43:07.068Z,3.30
2019-01-12T00:45:36.003Z,3.30
2019-01-12T00:48:04.859Z,3.20
2019-01-12T00:50:33.660Z,3.30
2019-01-12T00:53:02.706Z,3.40
2019-01-12T00:55:31.558Z,3.40
2019-01-12T00:58:00.378Z,3.40
2019-01-12T01:00:33.144Z,3.40
2019-01-12T01:03:02.118Z,3.40
2019-01-12T01:05:31.020Z,3.40
2019-01-12T01:07:59.917Z,3.40
2019-01-12T01:10:28.898Z,3.40
2019-01-12T01:12:57.777Z,3.40
2019-01-12T01:15:26.673Z,3.40
2019-01-12T01:17:55.627Z,3.40
2019-01-12T01:20:24.542Z,3.40
2019-01-12T01:22:53.477Z,3.40
2019-01-12T01:25:22.449Z,3.30
2019-01-12T01:27:51.394Z,3.30
2019-01-12T01:30:21.039Z,3.40
2019-01-12T01:32:50.031Z,3.30
2019-01-12T01:35:18.918Z,3.30
2019-01-12T01:37:47.975Z,3.20
2019-01-12T01:40:18.155Z,3.20
2019-01-12T01:42:46.927Z,3.30
2019-01-12T01:45:16.970Z,3.30
2019-01-12T01:47:45.862Z,3.40
2019-01-12T01:50:15.458Z,3.40
2019-01-12T01:52:44.475Z,3.40
2019-01-12T01:55:13.447Z,3.40
2019-01-12T01:57:42.373Z,3.40
2019-01-12T02:00:16.940Z,3.40
2019-01-12T02:02:45.787Z,3.50
2019-01-12T02:05:14.670Z,3.50
2019-01-12T02:07:43.641Z,3.40
2019-01-12T02:10:19.028Z,3.40
2019-01-12T02:12:48.052Z,3.40
2019-01-12T02:15:17.382Z,3.40
2019-01-12T02:17:46.301Z,3.40
2019-01-12T02:20:15.342Z,3.40
2019-01-12T02:22:44.361Z,3.30
2019-01-12T02:25:13.388Z,3.30
2019-01-12T02:27:42.270Z,3.40
2019-01-12T02:30:17.625Z,3.30
2019-01-12T02:32:46.499Z,3.40
2019-01-12T02:35:15.489Z,3.30
2019-01-12T02:37:44.276Z,3.30
2019-01-12T02:40:13.209Z,3.30
2019-01-12T02:42:42.138Z,3.30
2019-01-12T02:45:11.174Z,3.30
2019-01-12T02:47:40.082Z,3.30
2019-01-12T02:50:09.046Z,3.30
2019-01-12T02:52:37.912Z,3.30
2019-01-12T02:55:08.960Z,3.30
2019-01-12T02:57:37.536Z,3.50
2019-01-12T03:00:08.776Z,3.60
2019-01-12T03:02:37.781Z,3.70
2019-01-12T03:05:06.685Z,3.70
2019-01-12T03:07:35.662Z,3.70
2019-01-12T03:10:05.554Z,3.60
2019-01-12T03:12:34.341Z,3.60
2019-01-12T03:15:03.158Z,3.70
2019-01-12T03:17:32.042Z,3.70
2019-01-12T03:20:00.898Z,3.70
2019-01-12T03:22:30.305Z,3.80
2019-01-12T03:24:59.391Z,3.80
2019-01-12T03:27:28.228Z,3.80
2019-01-12T03:29:57.043Z,3.80
2019-01-12T03:32:25.941Z,3.80
2019-01-12T03:34:54.851Z,3.80
2019-01-12T03:37:23.715Z,3.90
2019-01-12T03:39:52.685Z,3.90
2019-01-12T03:42:21.540Z,4.00
2019-01-12T03:44:50.421Z,4.00
2019-01-12T03:47:19.367Z,3.90
2019-01-12T03:49:48.278Z,3.80
2019-01-12T03:52:17.284Z,3.80
2019-01-12T03:54:46.219Z,3.80
2019-01-12T03:57:15.134Z,3.80
2019-01-12T03:59:44.021Z,3.90
2019-01-12T04:02:12.980Z,3.90
2019-01-12T04:04:41.948Z,3.90
2019-01-12T04:07:10.961Z,4.00
2019-01-12T04:09:39.810Z,3.90
2019-01-12T04:12:08.659Z,3.90
2019-01-12T04:14:37.560Z,4.00
2019-01-12T04:17:06.527Z,3.90
2019-01-12T04:19:35.353Z,3.90
2019-01-12T04:22:04.371Z,3.90
2019-01-12T04:24:33.319Z,3.90
2019-01-12T04:27:02.400Z,3.90
2019-01-12T04:29:31.373Z,3.80
2019-01-12T04:32:00.273Z,3.80
2019-01-12T04:34:29.286Z,3.80
2019-01-12T04:36:58.103Z,3.80
2019-01-12T04:39:27.099Z,3.70
2019-01-12T04:41:56.104Z,3.80
2019-01-12T04:44:24.910Z,3.90
2019-01-12T04:46:53.686Z,3.90
2019-01-12T04:49:22.587Z,4.00
2019-01-12T04:51:51.533Z,4.00
2019-01-12T04:54:20.431Z,4.00
2019-01-12T04:56:49.251Z,3.90
2019-01-12T04:59:18.118Z,3.90
2019-01-12T05:01:47.007Z,3.80
2019-01-12T05:04:15.870Z,3.80
2019-01-12T05:06:44.983Z,3.90
2019-01-12T05:09:13.865Z,3.90
2019-01-12T05:11:42.733Z,3.90
2019-01-12T05:14:11.659Z,3.90
2019-01-12T05:16:40.668Z,4.00
2019-01-12T05:19:09.581Z,4.00
2019-01-12T05:21:38.498Z,4.00
2019-01-12T05:24:07.412Z,3.90
2019-01-12T05:26:36.189Z,3.90
2019-01-12T05:29:05.294Z,3.80
2019-01-12T05:31:34.230Z,3.80
2019-01-12T05:34:03.075Z,3.90
2019-01-12T05:36:31.880Z,3.80
2019-01-12T05:39:00.765Z,3.80
2019-01-12T05:41:29.640Z,3.80
2019-01-12T05:43:58.579Z,3.90
2019-01-12T05:46:27.571Z,3.90
2019-01-12T05:48:56.439Z,3.90
2019-01-12T05:51:25.420Z,3.80
2019-01-12T05:53:54.351Z,3.80
2019-01-12T05:56:23.343Z,3.80
2019-01-12T05:58:52.231Z,3.80
2019-01-12T06:01:21.072Z,3.90
2019-01-12T06:03:49.856Z,3.90
2019-01-12T06:06:18.770Z,4.00
2019-01-12T06:08:47.666Z,4.00
2019-01-12T06:11:16.434Z,4.00
2019-01-12T06:13:45.419Z,3.90
2019-01-12T06:16:14.270Z,4.00
2019-01-12T06:18:43.127Z,4.00
2019-01-12T06:21:12.090Z,3.90
2019-01-12T06:23:41.041Z,4.00
2019-01-12T06:26:09.978Z,4.00
2019-01-12T06:28:38.772Z,4.00
2019-01-12T06:31:07.706Z,4.00
2019-01-12T06:33:36.697Z,4.00
2019-01-12T06:36:05.582Z,4.10
2019-01-12T06:38:34.556Z,4.00
2019-01-12T06:41:03.380Z,4.10
2019-01-12T06:43:32.287Z,4.00
2019-01-12T06:46:01.197Z,4.00
2019-01-12T06:48:30.142Z,4.00
2019-01-12T06:50:59.002Z,4.10
2019-01-12T06:53:27.982Z,4.10
2019-01-12T06:56:16.976Z,4.10
2019-01-12T06:58:45.873Z,4.10
2019-01-12T07:01:14.882Z,4.00
2019-01-12T07:03:43.797Z,4.10
2019-01-12T07:06:12.800Z,4.10
2019-01-12T07:08:41.607Z,4.00
2019-01-12T07:11:10.503Z,4.00
2019-01-12T07:13:39.410Z,4.00
2019-01-12T07:16:08.351Z,3.90
2019-01-12T07:18:37.255Z,3.90
2019-01-12T07:21:06.192Z,3.90
2019-01-12T07:23:35.173Z,3.90
2019-01-12T07:26:03.943Z,3.90
2019-01-12T07:28:32.847Z,3.90
2019-01-12T07:31:01.665Z,3.90
2019-01-12T07:33:30.703Z,3.90
2019-01-12T07:35:59.494Z,4.00
2019-01-12T07:38:28.481Z,3.90
2019-01-12T07:40:57.394Z,3.90
2019-01-12T07:43:26.294Z,3.90
2019-01-12T07:45:55.353Z,3.90
2019-01-12T07:48:24.315Z,3.90
2019-01-12T07:50:53.202Z,4.00
2019-01-12T07:53:22.046Z,4.10
2019-01-12T07:55:50.974Z,4.10
2019-01-12T07:58:19.796Z,4.10
2019-01-12T08:00:48.739Z,4.10
2019-01-12T08:03:17.661Z,4.00
2019-01-12T08:05:46.511Z,4.00
2019-01-12T08:08:15.321Z,4.00
2019-01-12T08:10:44.219Z,4.00
2019-01-12T08:13:13.166Z,4.00
2019-01-12T08:15:42.162Z,4.00
2019-01-12T08:18:11.168Z,4.00
2019-01-12T08:20:40.027Z,4.10
2019-01-12T08:23:08.921Z,4.10
2019-01-12T08:25:37.832Z,4.20
2019-01-12T08:28:06.644Z,4.20
2019-01-12T08:30:35.577Z,4.10
2019-01-12T08:33:04.499Z,4.20
2019-01-12T08:35:33.412Z,4.10
2019-01-12T08:38:02.308Z,4.00
2019-01-12T08:40:31.087Z,4.10
2019-01-12T08:43:00.070Z,4.00
2019-01-12T08:45:29.041Z,4.00
2019-01-12T08:47:58.037Z,4.00
2019-01-12T08:50:26.855Z,4.00
2019-01-12T08:52:55.865Z,4.00
2019-01-12T08:55:24.831Z,3.90
2019-01-12T08:57:53.739Z,3.90
2019-01-12T09:00:23.062Z,4.00
2019-01-12T09:02:52.017Z,4.00
2019-01-12T09:05:20.815Z,4.00
2019-01-12T09:07:49.607Z,4.30
2019-01-12T09:10:22.289Z,4.40
2019-01-12T09:12:51.232Z,4.30
2019-01-12T09:15:20.563Z,4.20
2019-01-12T09:17:49.466Z,4.30
2019-01-12T09:20:18.499Z,4.30
2019-01-12T09:22:47.451Z,4.30
2019-01-12T09:25:16.428Z,4.30
2019-01-12T09:27:45.395Z,4.40
2019-01-12T09:30:16.633Z,4.40
2019-01-12T09:32:45.620Z,4.30
2019-01-12T09:35:14.862Z,4.20
2019-01-12T09:37:43.790Z,4.20
2019-01-12T09:40:14.861Z,4.10
2019-01-12T09:42:43.807Z,4.20
2019-01-12T09:45:12.886Z,4.30
2019-01-12T09:47:41.864Z,4.30
2019-01-12T09:50:13.386Z,4.30
2019-01-12T09:52:42.366Z,4.50
2019-01-12T09:55:11.171Z,4.30
2019-01-12T09:57:40.083Z,4.30
2019-01-12T10:00:18.574Z,4.40
2019-01-12T10:02:47.459Z,4.30
2019-01-12T10:05:16.352Z,4.40
2019-01-12T10:07:45.321Z,4.40
2019-01-12T10:10:15.925Z,4.40
2019-01-12T10:12:44.791Z,4.60
2019-01-12T10:15:13.843Z,4.60
2019-01-12T10:17:42.708Z,4.60
2019-01-12T10:20:16.543Z,4.60
2019-01-12T10:22:45.407Z,4.60
2019-01-12T10:25:14.688Z,4.60
2019-01-12T10:27:43.586Z,4.60
2019-01-12T10:30:21.159Z,4.60
2019-01-12T10:32:50.145Z,4.60
2019-01-12T10:35:19.029Z,4.70
2019-01-12T10:37:48.035Z,4.60
2019-01-12T10:40:16.995Z,4.60
2019-01-12T10:42:45.836Z,4.60
2019-01-12T10:45:15.337Z,4.60
2019-01-12T10:47:45.330Z,4.60
2019-01-12T10:50:19.754Z,4.60
2019-01-12T10:52:48.628Z,4.50
2019-01-12T10:55:20.631Z,4.60
2019-01-12T10:57:49.474Z,4.60
2019-01-12T11:00:20.856Z,4.50
2019-01-12T11:02:49.867Z,4.60
2019-01-12T11:05:18.862Z,4.60
2019-01-12T11:07:47.666Z,4.60
2019-01-12T11:10:16.555Z,4.60
2019-01-12T11:12:45.378Z,4.80
2019-01-12T11:15:16.368Z,4.90
2019-01-12T11:17:45.364Z,5.00
2019-01-12T11:20:14.343Z,5.10
2019-01-12T11:22:43.380Z,5.20
2019-01-12T11:25:12.683Z,5.20
2019-01-12T11:27:43.692Z,5.20
2019-01-12T11:30:14.680Z,5.10
2019-01-12T11:32:43.530Z,5.10
2019-01-12T11:35:12.394Z,5.10
2019-01-12T11:37:41.284Z,5.10
2019-01-12T11:40:18.107Z,5.10
2019-01-12T11:42:47.130Z,5.10
2019-01-12T11:45:16.228Z,5.10
2019-01-12T11:47:45.091Z,5.10
2019-01-12T11:50:14.757Z,5.10
2019-01-12T11:52:43.670Z,5.10
2019-01-12T11:55:13.147Z,5.10
2019-01-12T11:57:42.138Z,5.10
2019-01-12T12:00:22.676Z,5.10
2019-01-12T12:02:51.619Z,5.00
2019-01-12T12:05:20.589Z,5.00
2019-01-12T12:07:49.602Z,5.00
2019-01-12T12:10:20.150Z,5.00
2019-01-12T12:12:49.041Z,5.10
2019-01-12T12:15:18.094Z,5.00
2019-01-12T12:17:47.038Z,4.90
2019-01-12T12:20:20.680Z,5.00
2019-01-12T12:22:49.521Z,5.00
2019-01-12T12:25:18.448Z,5.10
2019-01-12T12:27:47.424Z,5.10
2019-01-12T12:30:27.322Z,5.00
2019-01-12T12:32:56.139Z,5.10
2019-01-12T12:35:25.007Z,5.10
2019-01-12T12:37:53.961Z,5.10
2019-01-12T12:40:22.928Z,5.10
2019-01-12T12:42:51.739Z,5.20
2019-01-12T12:45:23.426Z,5.30
2019-01-12T12:47:52.470Z,5.20
2019-01-12T12:50:21.510Z,5.20
2019-01-12T12:52:50.390Z,5.20
2019-01-12T12:55:19.316Z,5.20
2019-01-12T12:57:48.140Z,5.30
2019-01-12T13:00:19.332Z,5.30
2019-01-12T13:02:48.331Z,5.30
2019-01-12T13:05:17.124Z,5.30
2019-01-12T13:07:46.008Z,5.30
2019-01-12T13:10:23.214Z,5.40
2019-01-12T13:12:52.158Z,5.50
2019-01-12T13:15:21.014Z,5.50
2019-01-12T13:17:49.884Z,5.60
2019-01-12T13:20:20.499Z,5.60
2019-01-12T13:22:49.777Z,5.50
2019-01-12T13:25:18.752Z,5.50
2019-01-12T13:27:47.749Z,5.50
2019-01-12T13:30:21.967Z,5.50
2019-01-12T13:32:50.756Z,5.50
2019-01-12T13:35:19.649Z,5.50
2019-01-12T13:37:48.789Z,5.40
2019-01-12T13:40:21.662Z,5.40
2019-01-12T13:42:50.981Z,5.50
2019-01-12T13:45:20.421Z,5.40
2019-01-12T13:47:49.321Z,5.40
2019-01-12T13:50:20.074Z,5.40
2019-01-12T13:52:49.057Z,5.30
2019-01-12T13:55:18.059Z,5.30
2019-01-12T13:57:47.713Z,5.40
2019-01-12T14:00:31.397Z,5.30
2019-01-12T14:03:01.611Z,5.30
2019-01-12T14:05:30.629Z,5.20
2019-01-12T14:07:59.620Z,5.20
2019-01-12T14:10:28.667Z,5.20
2019-01-12T14:12:57.558Z,5.20
2019-01-12T14:15:26.474Z,5.10
2019-01-12T14:17:55.426Z,5.10
2019-01-12T14:20:26.788Z,5.00
2019-01-12T14:22:55.665Z,5.00
2019-01-12T14:25:24.569Z,5.00
2019-01-12T14:27:54.963Z,4.90
2019-01-12T14:30:24.157Z,4.90
2019-01-12T14:32:53.104Z,4.90
2019-01-12T14:35:21.982Z,4.80
2019-01-12T14:37:50.871Z,4.90
2019-01-12T14:40:19.726Z,4.90
2019-01-12T14:42:48.672Z,4.90
2019-01-12T14:45:23.069Z,4.90
2019-01-12T14:47:52.033Z,4.80
2019-01-12T14:50:20.808Z,4.90
2019-01-12T14:52:49.685Z,4.80
2019-01-12T14:55:18.684Z,4.80
2019-01-12T14:57:47.571Z,4.90
2019-01-12T15:00:18.665Z,4.80
2019-01-12T15:02:47.677Z,4.80
2019-01-12T15:05:18.349Z,4.70
2019-01-12T15:07:47.324Z,4.70
2019-01-12T15:10:17.611Z,4.70
2019-01-12T15:12:46.847Z,4.70
2019-01-12T15:15:15.966Z,4.70
2019-01-12T15:17:44.866Z,4.60
2019-01-12T15:20:18.924Z,4.70
2019-01-12T15:22:48.047Z,4.70
2019-01-12T15:25:16.970Z,4.70
2019-01-12T15:27:45.764Z,4.70
2019-01-12T15:30:20.470Z,4.70
2019-01-12T15:32:49.375Z,4.70
2019-01-12T15:35:19.008Z,4.60
2019-01-12T15:37:48.759Z,4.60
2019-01-12T15:40:18.532Z,4.60
2019-01-12T15:42:47.507Z,4.60
2019-01-12T15:45:19.135Z,4.60
2019-01-12T15:47:48.042Z,4.60
2019-01-12T15:50:18.902Z,4.60
2019-01-12T15:52:47.813Z,4.60
2019-01-12T15:55:16.704Z,4.60
2019-01-12T15:57:45.643Z,4.50
2019-01-12T16:00:19.758Z,4.60
2019-01-12T16:02:48.750Z,4.60
2019-01-12T16:05:17.705Z,4.50
2019-01-12T16:07:46.623Z,4.50
2019-01-12T16:10:15.662Z,4.50
2019-01-12T16:12:44.532Z,4.50
2019-01-12T16:15:16.069Z,4.50
2019-01-12T16:17:44.957Z,4.50
2019-01-12T16:20:28.704Z,4.50
2019-01-12T16:22:58.382Z,4.50
2019-01-12T16:25:27.278Z,4.50
2019-01-12T16:27:56.228Z,4.50
2019-01-12T16:30:25.199Z,4.50
2019-01-12T16:32:54.100Z,4.40
2019-01-12T16:35:23.011Z,4.50
2019-01-12T16:37:51.841Z,4.50
2019-01-12T16:40:22.340Z,4.50
2019-01-12T16:42:51.362Z,4.50
2019-01-12T16:45:20.330Z,4.50
2019-01-12T16:47:49.229Z,4.40
2019-01-12T16:50:18.085Z,4.30
2019-01-12T16:52:47.064Z,4.40
2019-01-12T16:55:16.549Z,4.40
2019-01-12T16:57:45.500Z,4.40
2019-01-12T17:00:22.545Z,4.40
2019-01-12T17:02:51.535Z,4.40
2019-01-12T17:05:20.316Z,4.40
2019-01-12T17:07:49.317Z,4.40
2019-01-12T17:10:19.277Z,4.40
2019-01-12T17:12:48.227Z,4.40
2019-01-12T17:15:18.848Z,4.40
2019-01-12T17:17:47.706Z,4.40
2019-01-12T17:20:19.365Z,4.40
2019-01-12T17:22:48.826Z,4.50
2019-01-12T17:25:17.838Z,4.40
2019-01-12T17:27:46.723Z,4.40
2019-01-12T17:30:18.129Z,4.40
2019-01-12T17:32:47.030Z,4.40
2019-01-12T17:35:16.085Z,4.50
2019-01-12T17:37:46.110Z,4.40
2019-01-12T17:40:15.170Z,4.30
2019-01-12T17:42:44.034Z,4.30
2019-01-12T17:45:18.279Z,4.40
2019-01-12T17:47:47.227Z,4.40
2019-01-12T17:50:18.154Z,4.40
2019-01-12T17:52:47.053Z,4.40
2019-01-12T17:55:17.926Z,4.60
2019-01-12T17:57:46.886Z,4.60
2019-01-12T18:00:21.239Z,4.70
2019-01-12T18:02:50.129Z,4.60
2019-01-12T18:05:19.039Z,4.60
2019-01-12T18:07:47.990Z,4.70
2019-01-12T18:10:16.919Z,4.70
2019-01-12T18:12:45.861Z,4.80
2019-01-12T18:15:14.824Z,4.90
2019-01-12T18:17:43.625Z,4.80
2019-01-12T18:20:13.739Z,4.60
2019-01-12T18:22:42.831Z,4.60
2019-01-12T18:25:12.139Z,4.50
2019-01-12T18:27:40.899Z,4.50
2019-01-12T18:30:16.595Z,4.50
2019-01-12T18:32:45.801Z,4.50
2019-01-12T18:35:14.651Z,4.50
2019-01-12T18:37:43.562Z,4.70
2019-01-12T18:40:14.544Z,4.80
2019-01-12T18:42:43.437Z,4.90
2019-01-12T18:45:14.357Z,5.00
2019-01-12T18:47:43.312Z,5.10
2019-01-12T18:50:15.259Z,5.30
2019-01-12T18:52:44.210Z,5.30
2019-01-12T18:55:13.207Z,5.20
2019-01-12T18:57:42.509Z,5.20
2019-01-12T19:00:18.503Z,5.20
2019-01-12T19:02:47.715Z,5.10
2019-01-12T19:05:16.849Z,5.10
2019-01-12T19:07:45.818Z,5.10
2019-01-12T19:10:14.810Z,5.20
2019-01-12T19:12:43.814Z,5.20
2019-01-12T19:15:15.757Z,5.20
2019-01-12T19:17:44.611Z,5.30
2019-01-12T19:20:13.520Z,5.40
2019-01-12T19:22:42.597Z,5.40
2019-01-12T19:25:11.714Z,5.40
2019-01-12T19:27:40.610Z,5.40
2019-01-12T19:30:12.838Z,5.40
2019-01-12T19:32:41.809Z,5.30
2019-01-12T19:35:10.688Z,5.40
2019-01-12T19:37:39.591Z,5.30
2019-01-12T19:40:11.894Z,5.30
2019-01-12T19:42:40.934Z,5.40
2019-01-12T19:45:11.289Z,5.30
2019-01-12T19:47:40.225Z,5.30
2019-01-12T19:50:11.407Z,5.20
2019-01-12T19:52:40.692Z,5.20
2019-01-12T19:55:09.652Z,5.10
2019-01-12T19:57:38.720Z,5.20
2019-01-12T20:00:10.796Z,5.20
2019-01-12T20:02:39.784Z,5.20
2019-01-12T20:05:08.734Z,5.10
2019-01-12T20:07:37.800Z,5.30
2019-01-12T20:10:08.434Z,5.30
2019-01-12T20:12:37.504Z,5.30
2019-01-12T20:15:09.594Z,5.30
2019-01-12T20:17:38.673Z,5.30
2019-01-12T20:20:09.728Z,5.30
2019-01-12T20:22:39.029Z,5.20
2019-01-12T20:25:10.089Z,5.40
2019-01-12T20:27:39.040Z,5.40
2019-01-12T20:30:17.115Z,5.40
2019-01-12T20:33:06.660Z,5.50
2019-01-12T20:35:58.301Z,5.40
2019-01-12T20:38:44.800Z,5.50
2019-01-12T20:41:43.762Z,5.60
2019-01-12T20:45:00.505Z,5.50
2019-01-12T20:48:08.983Z,5.50
2019-01-12T20:51:04.075Z,5.40
2019-01-12T20:54:17.254Z,5.40
2019-01-12T20:57:30.103Z,5.40
2019-01-12T21:00:14.957Z,5.30
2019-01-12T21:03:06.288Z,5.30
2019-01-12T21:05:50.317Z,5.30
2019-01-12T21:08:35.602Z,5.20
2019-01-12T21:11:56.929Z,5.30
2019-01-12T21:14:40.396Z,5.40
2019-01-12T21:17:14.875Z,5.30
2019-01-12T21:19:48.064Z,5.30
2019-01-12T21:22:15.022Z,5.30
2019-01-12T21:24:44.190Z,5.30
2019-01-12T21:27:13.193Z,5.30
2019-01-12T21:29:42.341Z,5.20
2019-01-12T21:32:11.616Z,5.20
2019-01-12T21:34:40.510Z,5.20
2019-01-12T21:37:09.449Z,5.20
2019-01-12T21:39:38.359Z,5.10
2019-01-12T21:42:07.281Z,5.10
2019-01-12T21:44:36.351Z,5.20
2019-01-12T21:47:05.692Z,5.30
2019-01-12T21:49:34.639Z,5.30
2019-01-12T21:52:03.601Z,5.20
2019-01-12T21:54:32.549Z,5.20
2019-01-12T21:57:01.554Z,5.20
2019-01-12T21:59:30.530Z,5.00
2019-01-12T22:01:59.515Z,5.10
2019-01-12T22:04:28.690Z,5.10
2019-01-12T22:06:57.702Z,5.10
2019-01-12T22:09:26.584Z,5.10
2019-01-12T22:11:55.397Z,5.10
2019-01-12T22:14:24.295Z,5.10
2019-01-12T22:16:53.318Z,5.20
2019-01-12T22:19:22.136Z,5.30
2019-01-12T22:21:51.039Z,5.30
2019-01-12T22:24:20.016Z,5.20
2019-01-12T22:26:48.796Z,5.10
2019-01-12T22:29:17.696Z,5.10
2019-01-12T22:31:46.702Z,5.00
2019-01-12T22:34:15.785Z,5.00
2019-01-12T22:36:44.769Z,5.00
2019-01-12T22:39:13.707Z,4.90
2019-01-12T22:41:42.506Z,4.90
2019-01-12T22:44:11.361Z,4.80
2019-01-12T22:46:40.455Z,4.80
2019-01-12T22:49:09.348Z,4.80
2019-01-12T22:51:38.365Z,4.80
2019-01-12T22:54:07.353Z,4.80
2019-01-12T22:56:36.389Z,5.00
2019-01-12T22:59:05.308Z,5.00
2019-01-12T23:02:02.730Z,5.00
2019-01-12T23:04:32.453Z,5.10
2019-01-12T23:07:01.341Z,4.90
2019-01-12T23:09:30.317Z,4.90
2019-01-12T23:11:59.280Z,4.90
2019-01-12T23:14:28.217Z,4.90
2019-01-12T23:16:57.232Z,5.00
2019-01-12T23:19:26.128Z,4.90
2019-01-12T23:21:55.098Z,5.00
2019-01-12T23:24:24.071Z,5.00
2019-01-12T23:26:52.972Z,5.00
2019-01-12T23:29:21.899Z,5.00
2019-01-12T23:31:50.944Z,4.90
2019-01-12T23:34:19.960Z,4.80
2019-01-12T23:36:48.875Z,4.80
2019-01-12T23:39:17.712Z,4.80
2019-01-12T23:41:46.687Z,4.80
2019-01-12T23:44:15.763Z,4.70
2019-01-12T23:46:44.694Z,4.70
2019-01-12T23:49:13.585Z,4.70
2019-01-12T23:51:42.388Z,4.80
2019-01-12T23:54:11.404Z,4.90
2019-01-12T23:56:40.239Z,5.00
2019-01-12T23:59:09.281Z,4.90
